sensor_id;sensor_type;location;lat;lon;timestamp;pressure;altitude;pressure_sealevel;temperature;humidity
71239;BME280;61342;51.442;7.370;2022-10-04T00:01:07;100837.09;;;12.84;77.90
71239;BME280;61342;51.442;7.370;2022-10-04T00:03:26;100833.41;;;12.89;77.12
71239;BME280;61342;51.442;7.370;2022-10-04T00:04:31;100832.63;;;12.89;76.88
71239;BME280;61342;51.442;7.370;2022-10-04T00:05:40;100833.41;;;12.89;76.89
71239;BME280;61342;51.442;7.370;2022-10-04T00:06:52;100823.22;;;12.83;77.06
71239;BME280;61342;51.442;7.370;2022-10-04T00:07:58;100826.38;;;12.85;76.75
71239;BME280;61342;51.442;7.370;2022-10-04T00:09:07;100814.56;;;12.77;76.83
71239;BME280;61342;51.442;7.370;2022-10-04T00:10:19;100823.22;;;12.77;76.81
71239;BME280;61342;51.442;7.370;2022-10-04T00:11:27;100825.59;;;12.73;76.76
71239;BME280;61342;51.442;7.370;2022-10-04T00:12:36;100827.47;;;12.71;76.85
71239;BME280;61342;51.442;7.370;2022-10-04T00:13:38;100824.03;;;12.67;76.90
71239;BME280;61342;51.442;7.370;2022-10-04T00:14:41;100819.88;;;12.63;76.97
71239;BME280;61342;51.442;7.370;2022-10-04T00:15:47;100820.16;;;12.59;76.64
71239;BME280;61342;51.442;7.370;2022-10-04T00:16:48;100820.16;;;12.59;77.22
71239;BME280;61342;51.442;7.370;2022-10-04T00:24:29;100822.31;;;12.37;77.96
71239;BME280;61342;51.442;7.370;2022-10-04T00:25:34;100828.63;;;12.35;77.86
71239;BME280;61342;51.442;7.370;2022-10-04T00:27:36;100824.19;;;12.34;77.93
71239;BME280;61342;51.442;7.370;2022-10-04T00:29:40;100825.22;;;12.31;78.38
71239;BME280;61342;51.442;7.370;2022-10-04T00:30:43;100824.19;;;12.29;78.32
71239;BME280;61342;51.442;7.370;2022-10-04T00:33:09;100815.53;;;12.23;78.48
71239;BME280;61342;51.442;7.370;2022-10-04T00:36:43;100820.03;;;12.19;78.87
71239;BME280;61342;51.442;7.370;2022-10-04T00:37:55;100815.56;;;12.18;79.08
71239;BME280;61342;51.442;7.370;2022-10-04T00:40:15;100809.03;;;12.12;79.08
71239;BME280;61342;51.442;7.370;2022-10-04T00:41:19;100817.41;;;12.15;79.25
71239;BME280;61342;51.442;7.370;2022-10-04T00:43:42;100812.16;;;12.14;79.29
71239;BME280;61342;51.442;7.370;2022-10-04T00:46:28;100809.53;;;12.10;79.66
71239;BME280;61342;51.442;7.370;2022-10-04T00:48:54;100811.13;;;12.11;79.67
71239;BME280;61342;51.442;7.370;2022-10-04T00:51:52;100808.50;;;12.19;79.98
71239;BME280;61342;51.442;7.370;2022-10-04T00:52:59;100799.56;;;12.28;79.66
71239;BME280;61342;51.442;7.370;2022-10-04T00:55:20;100793.44;;;12.53;79.71
71239;BME280;61342;51.442;7.370;2022-10-04T00:56:27;100802.00;;;12.69;79.60
71239;BME280;61342;51.442;7.370;2022-10-04T00:57:33;100796.72;;;12.84;79.25
71239;BME280;61342;51.442;7.370;2022-10-04T00:59:08;100780.94;;;12.96;79.07
71239;BME280;61342;51.442;7.370;2022-10-04T01:00:17;100785.81;;;13.12;78.55
71239;BME280;61342;51.442;7.370;2022-10-04T01:01:20;100787.03;;;13.22;78.00
71239;BME280;61342;51.442;7.370;2022-10-04T01:02:28;100783.06;;;13.30;77.85
71239;BME280;61342;51.442;7.370;2022-10-04T01:03:39;100779.91;;;13.34;76.96
71239;BME280;61342;51.442;7.370;2022-10-04T01:04:50;100780.63;;;13.40;76.70
71239;BME280;61342;51.442;7.370;2022-10-04T01:05:57;100783.50;;;13.40;76.55
71239;BME280;61342;51.442;7.370;2022-10-04T01:07:01;100780.88;;;13.42;76.41
71239;BME280;61342;51.442;7.370;2022-10-04T01:08:10;100787.97;;;13.41;76.30
71239;BME280;61342;51.442;7.370;2022-10-04T01:09:12;100787.47;;;13.37;76.15
71239;BME280;61342;51.442;7.370;2022-10-04T01:11:27;100783.56;;;13.34;76.13
71239;BME280;61342;51.442;7.370;2022-10-04T01:12:50;100790.16;;;13.29;76.02
71239;BME280;61342;51.442;7.370;2022-10-04T01:14:43;100791.50;;;13.23;76.14
71239;BME280;61342;51.442;7.370;2022-10-04T01:15:52;100797.81;;;13.22;76.29
71239;BME280;61342;51.442;7.370;2022-10-04T01:16:55;100789.97;;;13.17;76.23
71239;BME280;61342;51.442;7.370;2022-10-04T01:20:32;100794.25;;;13.05;76.56
71239;BME280;61342;51.442;7.370;2022-10-04T01:21:33;100787.19;;;13.00;76.55
71239;BME280;61342;51.442;7.370;2022-10-04T01:22:42;100787.19;;;13.00;76.44
71239;BME280;61342;51.442;7.370;2022-10-04T01:24:59;100779.94;;;12.88;77.09
71239;BME280;61342;51.442;7.370;2022-10-04T01:25:59;100779.41;;;12.84;76.97
71239;BME280;61342;51.442;7.370;2022-10-04T01:27:01;100788.06;;;12.84;76.84
71239;BME280;61342;51.442;7.370;2022-10-04T01:28:01;100769.72;;;12.82;77.14
71239;BME280;61342;51.442;7.370;2022-10-04T01:29:15;100776.81;;;12.75;77.17
71239;BME280;61342;51.442;7.370;2022-10-04T01:30:16;100777.88;;;12.72;77.31
71239;BME280;61342;51.442;7.370;2022-10-04T01:31:17;100775.81;;;12.67;77.62
71239;BME280;61342;51.442;7.370;2022-10-04T01:32:17;100779.78;;;12.65;77.60
71239;BME280;61342;51.442;7.370;2022-10-04T01:33:18;100779.50;;;12.63;77.76
71239;BME280;61342;51.442;7.370;2022-10-04T01:34:23;100784.50;;;12.62;77.68
71239;BME280;61342;51.442;7.370;2022-10-04T01:35:23;100779.25;;;12.61;78.00
71239;BME280;61342;51.442;7.370;2022-10-04T01:36:25;100771.66;;;12.58;77.96
71239;BME280;61342;51.442;7.370;2022-10-04T01:37:27;100768.03;;;12.52;77.79
71239;BME280;61342;51.442;7.370;2022-10-04T01:38:28;100773.78;;;12.52;78.21
71239;BME280;61342;51.442;7.370;2022-10-04T01:39:28;100773.00;;;12.51;78.18
71239;BME280;61342;51.442;7.370;2022-10-04T01:40:29;100772.22;;;12.51;78.30
71239;BME280;61342;51.442;7.370;2022-10-04T01:42:50;100767.00;;;12.44;78.30
71239;BME280;61342;51.442;7.370;2022-10-04T01:43:57;100764.91;;;12.44;78.73
71239;BME280;61342;51.442;7.370;2022-10-04T01:45:12;100764.66;;;12.42;78.77
71239;BME280;61342;51.442;7.370;2022-10-04T01:46:28;100755.50;;;12.38;78.58
71239;BME280;61342;51.442;7.370;2022-10-04T01:47:53;100751.31;;;12.34;78.83
71239;BME280;61342;51.442;7.370;2022-10-04T01:48:59;100754.47;;;12.36;78.92
71239;BME280;61342;51.442;7.370;2022-10-04T01:50:09;100744.78;;;12.33;79.10
71239;BME280;61342;51.442;7.370;2022-10-04T01:51:18;100748.19;;;12.32;78.99
71239;BME280;61342;51.442;7.370;2022-10-04T01:52:21;100749.22;;;12.34;79.28
71239;BME280;61342;51.442;7.370;2022-10-04T01:53:27;100741.63;;;12.31;79.64
71239;BME280;61342;51.442;7.370;2022-10-04T01:54:49;100749.19;;;12.40;79.24
71239;BME280;61342;51.442;7.370;2022-10-04T01:56:04;100742.59;;;12.50;79.67
71239;BME280;61342;51.442;7.370;2022-10-04T01:58:20;100731.75;;;12.72;79.37
71239;BME280;61342;51.442;7.370;2022-10-04T01:59:26;100736.91;;;12.85;79.28
71239;BME280;61342;51.442;7.370;2022-10-04T02:00:30;100725.56;;;12.98;79.33
71239;BME280;61342;51.442;7.370;2022-10-04T02:01:37;100730.47;;;13.08;78.79
71239;BME280;61342;51.442;7.370;2022-10-04T02:02:40;100733.03;;;13.17;78.47
71239;BME280;61342;51.442;7.370;2022-10-04T02:03:50;100729.56;;;13.24;78.05
71239;BME280;61342;51.442;7.370;2022-10-04T02:04:54;100721.66;;;13.24;77.50
71239;BME280;61342;51.442;7.370;2022-10-04T02:05:59;100719.59;;;13.25;77.47
71239;BME280;61342;51.442;7.370;2022-10-04T02:07:02;100733.16;;;13.35;77.09
71239;BME280;61342;51.442;7.370;2022-10-04T02:08:11;100735.25;;;13.35;76.95
71239;BME280;61342;51.442;7.370;2022-10-04T02:09:19;100739.47;;;13.34;76.91
71239;BME280;61342;51.442;7.370;2022-10-04T02:10:22;100727.13;;;13.33;76.54
71239;BME280;61342;51.442;7.370;2022-10-04T02:11:26;100708.75;;;13.31;76.90
71239;BME280;61342;51.442;7.370;2022-10-04T02:12:30;100724.28;;;13.28;76.37
71239;BME280;61342;51.442;7.370;2022-10-04T02:13:37;100719.31;;;13.23;76.69
71239;BME280;61342;51.442;7.370;2022-10-04T02:14:44;100715.41;;;13.21;76.62
71239;BME280;61342;51.442;7.370;2022-10-04T02:15:51;100721.50;;;13.17;76.50
71239;BME280;61342;51.442;7.370;2022-10-04T02:16:52;100713.88;;;13.14;76.72
71239;BME280;61342;51.442;7.370;2022-10-04T02:17:54;100724.16;;;13.10;77.08
71239;BME280;61342;51.442;7.370;2022-10-04T02:18:56;100728.13;;;13.07;76.92
71239;BME280;61342;51.442;7.370;2022-10-04T02:19:58;100729.72;;;13.02;77.21
71239;BME280;61342;51.442;7.370;2022-10-04T02:21:00;100726.59;;;13.00;76.81
71239;BME280;61342;51.442;7.370;2022-10-04T02:22:06;100727.19;;;12.93;76.88
71239;BME280;61342;51.442;7.370;2022-10-04T02:23:09;100730.56;;;12.92;77.16
71239;BME280;61342;51.442;7.370;2022-10-04T02:24:10;100730.88;;;12.88;77.12
71239;BME280;61342;51.442;7.370;2022-10-04T02:25:12;100723.53;;;12.87;77.00
71239;BME280;61342;51.442;7.370;2022-10-04T02:26:13;100728.78;;;12.83;77.10
71239;BME280;61342;51.442;7.370;2022-10-04T02:27:15;100725.63;;;12.81;77.45
71239;BME280;61342;51.442;7.370;2022-10-04T02:28:16;100727.75;;;12.81;77.25
71239;BME280;61342;51.442;7.370;2022-10-04T02:29:18;100723.81;;;12.78;77.33
71239;BME280;61342;51.442;7.370;2022-10-04T02:30:20;100725.97;;;12.72;77.33
71239;BME280;61342;51.442;7.370;2022-10-04T02:31:21;100717.84;;;12.71;77.64
71239;BME280;61342;51.442;7.370;2022-10-04T02:32:42;100711.31;;;12.65;77.29
71239;BME280;61342;51.442;7.370;2022-10-04T02:33:59;100714.47;;;12.62;77.97
71239;BME280;61342;51.442;7.370;2022-10-04T02:35:00;100705.81;;;12.62;78.20
71239;BME280;61342;51.442;7.370;2022-10-04T02:36:01;100708.69;;;12.62;77.79
71239;BME280;61342;51.442;7.370;2022-10-04T02:37:03;100700.09;;;12.56;77.80
71239;BME280;61342;51.442;7.370;2022-10-04T02:38:16;100696.66;;;12.58;78.19
71239;BME280;61342;51.442;7.370;2022-10-04T02:39:24;100699.03;;;12.54;78.06
71239;BME280;61342;51.442;7.370;2022-10-04T02:40:30;100686.78;;;12.48;78.08
71239;BME280;61342;51.442;7.370;2022-10-04T02:41:42;100701.16;;;12.53;78.14
71239;BME280;61342;51.442;7.370;2022-10-04T02:42:50;100694.88;;;12.49;78.11
71239;BME280;61342;51.442;7.370;2022-10-04T02:46:35;100693.59;;;12.45;78.32
71239;BME280;61342;51.442;7.370;2022-10-04T02:47:46;100688.63;;;12.45;78.62
71239;BME280;61342;51.442;7.370;2022-10-04T02:48:54;100678.94;;;12.43;78.55
71239;BME280;61342;51.442;7.370;2022-10-04T02:50:04;100688.91;;;12.42;78.49
71239;BME280;61342;51.442;7.370;2022-10-04T02:51:22;100677.66;;;12.38;78.67
71239;BME280;61342;51.442;7.370;2022-10-04T02:53:43;100685.78;;;12.40;78.90
71239;BME280;61342;51.442;7.370;2022-10-04T02:54:55;100694.66;;;12.42;78.69
71239;BME280;61342;51.442;7.370;2022-10-04T02:55:58;100690.69;;;12.45;79.01
71239;BME280;61342;51.442;7.370;2022-10-04T02:57:01;100691.47;;;12.51;78.87
71239;BME280;61342;51.442;7.370;2022-10-04T02:58:08;100687.25;;;12.57;78.89
71239;BME280;61342;51.442;7.370;2022-10-04T02:59:14;100684.81;;;12.66;79.07
71239;BME280;61342;51.442;7.370;2022-10-04T03:00:17;100693.38;;;12.77;78.68
71239;BME280;61342;51.442;7.370;2022-10-04T03:01:26;100684.94;;;12.90;78.80
71239;BME280;61342;51.442;7.370;2022-10-04T03:02:29;100680.16;;;12.98;78.66
71239;BME280;61342;51.442;7.370;2022-10-04T03:03:32;100682.44;;;13.11;78.61
71239;BME280;61342;51.442;7.370;2022-10-04T03:04:38;100678.13;;;13.23;78.03
71239;BME280;61342;51.442;7.370;2022-10-04T03:05:39;100675.69;;;13.32;77.64
71239;BME280;61342;51.442;7.370;2022-10-04T03:06:40;100674.31;;;13.38;77.26
71239;BME280;61342;51.442;7.370;2022-10-04T03:07:42;100674.25;;;13.44;76.78
71239;BME280;61342;51.442;7.370;2022-10-04T03:08:50;100678.16;;;13.46;76.81
71239;BME280;61342;51.442;7.370;2022-10-04T03:09:51;100676.31;;;13.49;76.19
71239;BME280;61342;51.442;7.370;2022-10-04T03:10:52;100677.09;;;13.49;76.20
71239;BME280;61342;51.442;7.370;2022-10-04T03:11:53;100681.28;;;13.48;76.07
71239;BME280;61342;51.442;7.370;2022-10-04T03:12:53;100680.53;;;13.48;75.85
71239;BME280;61342;51.442;7.370;2022-10-04T03:13:56;100679.50;;;13.45;75.82
71239;BME280;61342;51.442;7.370;2022-10-04T03:14:58;100677.91;;;13.44;75.59
71239;BME280;61342;51.442;7.370;2022-10-04T03:15:59;100681.66;;;13.39;75.77
71239;BME280;61342;51.442;7.370;2022-10-04T03:17:01;100677.97;;;13.39;75.69
71239;BME280;61342;51.442;7.370;2022-10-04T03:18:03;100669.13;;;13.31;76.16
71239;BME280;61342;51.442;7.370;2022-10-04T03:19:04;100676.78;;;13.29;75.81
71239;BME280;61342;51.442;7.370;2022-10-04T03:20:07;100677.53;;;13.29;75.85
71239;BME280;61342;51.442;7.370;2022-10-04T03:21:12;100677.81;;;13.26;75.82
71239;BME280;61342;51.442;7.370;2022-10-04T03:22:15;100672.91;;;13.21;75.89
71239;BME280;61342;51.442;7.370;2022-10-04T03:23:18;100669.28;;;13.15;76.09
71239;BME280;61342;51.442;7.370;2022-10-04T03:24:23;100677.94;;;13.15;76.40
71239;BME280;61342;51.442;7.370;2022-10-04T03:25:28;100675.88;;;13.10;76.16
71239;BME280;61342;51.442;7.370;2022-10-04T03:26:38;100684.56;;;13.05;76.27
71239;BME280;61342;51.442;7.370;2022-10-04T03:27:41;100680.13;;;13.04;76.64
71239;BME280;61342;51.442;7.370;2022-10-04T03:28:42;100674.94;;;12.97;76.51
71239;BME280;61342;51.442;7.370;2022-10-04T03:29:45;100671.81;;;12.95;76.68
71239;BME280;61342;51.442;7.370;2022-10-04T03:30:46;100676.53;;;12.92;76.85
71239;BME280;61342;51.442;7.370;2022-10-04T03:31:50;100678.41;;;12.90;77.00
71239;BME280;61342;51.442;7.370;2022-10-04T03:32:51;100672.13;;;12.86;76.93
71239;BME280;61342;51.442;7.370;2022-10-04T03:33:55;100669.50;;;12.82;77.15
71239;BME280;61342;51.442;7.370;2022-10-04T03:35:02;100662.69;;;12.80;77.27
71239;BME280;61342;51.442;7.370;2022-10-04T03:36:04;100660.88;;;12.77;77.24
71239;BME280;61342;51.442;7.370;2022-10-04T03:37:13;100656.97;;;12.74;77.34
71239;BME280;61342;51.442;7.370;2022-10-04T03:38:15;100653.59;;;12.70;77.54
71239;BME280;61342;51.442;7.370;2022-10-04T03:39:29;100660.44;;;12.67;77.57
71239;BME280;61342;51.442;7.370;2022-10-04T03:40:32;100658.63;;;12.65;77.57
71239;BME280;61342;51.442;7.370;2022-10-04T03:41:32;100654.94;;;12.64;77.79
71239;BME280;61342;51.442;7.370;2022-10-04T03:42:35;100663.59;;;12.64;77.76
71239;BME280;61342;51.442;7.370;2022-10-04T03:43:41;100669.91;;;12.63;77.80
71239;BME280;61342;51.442;7.370;2022-10-04T03:44:44;100668.88;;;12.60;77.80
71239;BME280;61342;51.442;7.370;2022-10-04T03:45:45;100666.53;;;12.59;78.12
71239;BME280;61342;51.442;7.370;2022-10-04T03:46:46;100663.63;;;12.59;78.21
71239;BME280;61342;51.442;7.370;2022-10-04T03:47:49;100668.91;;;12.55;78.06
71239;BME280;61342;51.442;7.370;2022-10-04T03:48:52;100669.94;;;12.57;78.28
71239;BME280;61342;51.442;7.370;2022-10-04T03:49:54;100656.06;;;12.56;78.48
71239;BME280;61342;51.442;7.370;2022-10-04T03:50:57;100667.59;;;12.56;78.35
71239;BME280;61342;51.442;7.370;2022-10-04T03:51:58;100659.22;;;12.52;78.48
71239;BME280;61342;51.442;7.370;2022-10-04T03:53:04;100659.22;;;12.52;78.51
71239;BME280;61342;51.442;7.370;2022-10-04T03:54:09;100660.53;;;12.51;78.59
71239;BME280;61342;51.442;7.370;2022-10-04T03:55:14;100662.63;;;12.51;78.65
71239;BME280;61342;51.442;7.370;2022-10-04T03:56:32;100660.53;;;12.51;78.63
71239;BME280;61342;51.442;7.370;2022-10-04T03:57:35;100655.56;;;12.52;79.18
71239;BME280;61342;51.442;7.370;2022-10-04T03:58:36;100655.78;;;12.54;79.19
71239;BME280;61342;51.442;7.370;2022-10-04T03:59:36;100655.47;;;12.63;78.70
71239;BME280;61342;51.442;7.370;2022-10-04T04:00:52;100658.03;;;12.71;79.17
71239;BME280;61342;51.442;7.370;2022-10-04T04:02:03;100659.03;;;12.85;78.95
71239;BME280;61342;51.442;7.370;2022-10-04T04:03:08;100651.63;;;12.95;78.47
71239;BME280;61342;51.442;7.370;2022-10-04T04:04:45;100655.66;;;13.10;78.49
71239;BME280;61342;51.442;7.370;2022-10-04T04:05:53;100651.59;;;13.24;78.27
71239;BME280;61342;51.442;7.370;2022-10-04T04:08:13;100647.78;;;13.40;77.37
71239;BME280;61342;51.442;7.370;2022-10-04T04:09:52;100649.00;;;13.50;76.71
71239;BME280;61342;51.442;7.370;2022-10-04T04:10:57;100652.59;;;13.56;76.53
71239;BME280;61342;51.442;7.370;2022-10-04T04:12:00;100646.81;;;13.56;75.98
71239;BME280;61342;51.442;7.370;2022-10-04T04:14:34;100648.13;;;13.55;75.75
71239;BME280;61342;51.442;7.370;2022-10-04T04:15:38;100649.50;;;13.54;75.64
71239;BME280;61342;51.442;7.370;2022-10-04T04:16:42;100651.88;;;13.50;75.62
71239;BME280;61342;51.442;7.370;2022-10-04T04:17:47;100647.19;;;13.47;75.51
71239;BME280;61342;51.442;7.370;2022-10-04T04:18:51;100650.13;;;13.41;75.47
71239;BME280;61342;51.442;7.370;2022-10-04T04:19:53;100654.88;;;13.39;75.75
71239;BME280;61342;51.442;7.370;2022-10-04T04:20:58;100652.59;;;13.32;75.80
71239;BME280;61342;51.442;7.370;2022-10-04T04:22:00;100662.56;;;13.31;75.75
71239;BME280;61342;51.442;7.370;2022-10-04T04:23:10;100659.44;;;13.29;75.86
71239;BME280;61342;51.442;7.370;2022-10-04T04:24:32;100652.44;;;13.19;75.76
71239;BME280;61342;51.442;7.370;2022-10-04T04:25:36;100655.31;;;13.19;75.82
71239;BME280;61342;51.442;7.370;2022-10-04T04:26:48;100651.19;;;13.15;76.11
71239;BME280;61342;51.442;7.370;2022-10-04T04:27:52;100640.75;;;13.06;76.02
71239;BME280;61342;51.442;7.370;2022-10-04T04:29:30;100640.56;;;12.99;76.25
71239;BME280;61342;51.442;7.370;2022-10-04T04:30:32;100639.75;;;12.98;76.27
71239;BME280;61342;51.442;7.370;2022-10-04T04:31:54;100628.81;;;12.91;76.01
71239;BME280;61342;51.442;7.370;2022-10-04T04:32:56;100636.69;;;12.91;76.44
71239;BME280;61342;51.442;7.370;2022-10-04T04:34:15;100635.13;;;12.84;76.42
71239;BME280;61342;51.442;7.370;2022-10-04T04:35:32;100626.81;;;12.75;76.82
71239;BME280;61342;51.442;7.370;2022-10-04T04:36:39;100642.25;;;12.78;76.70
71239;BME280;61342;51.442;7.370;2022-10-04T04:37:39;100639.13;;;12.76;76.89
71239;BME280;61342;51.442;7.370;2022-10-04T04:38:40;100635.75;;;12.72;76.68
71239;BME280;61342;51.442;7.370;2022-10-04T04:40:31;100636.31;;;12.65;76.80
71239;BME280;61342;51.442;7.370;2022-10-04T04:41:32;100638.16;;;12.63;76.84
71239;BME280;61342;51.442;7.370;2022-10-04T04:42:36;100642.38;;;12.62;77.33
71239;BME280;61342;51.442;7.370;2022-10-04T04:43:42;100633.22;;;12.58;76.99
71239;BME280;61342;51.442;7.370;2022-10-04T04:44:52;100635.88;;;12.56;77.17
71239;BME280;61342;51.442;7.370;2022-10-04T04:45:54;100634.56;;;12.51;77.05
71239;BME280;61342;51.442;7.370;2022-10-04T04:46:57;100639.03;;;12.52;77.16
71239;BME280;61342;51.442;7.370;2022-10-04T04:48:00;100643.00;;;12.49;77.61
71239;BME280;61342;51.442;7.370;2022-10-04T04:49:03;100636.44;;;12.49;77.74
71239;BME280;61342;51.442;7.370;2022-10-04T04:50:11;100640.16;;;12.44;77.72
71239;BME280;61342;51.442;7.370;2022-10-04T04:51:21;100637.81;;;12.42;77.33
71239;BME280;61342;51.442;7.370;2022-10-04T04:52:26;100634.66;;;12.40;77.79
71239;BME280;61342;51.442;7.370;2022-10-04T04:53:28;100633.06;;;12.39;77.71
71239;BME280;61342;51.442;7.370;2022-10-04T04:54:29;100621.34;;;12.32;77.62
71239;BME280;61342;51.442;7.370;2022-10-04T04:55:39;100630.22;;;12.34;77.89
71239;BME280;61342;51.442;7.370;2022-10-04T04:56:41;100634.41;;;12.33;77.75
71239;BME280;61342;51.442;7.370;2022-10-04T04:57:42;100628.97;;;12.29;77.88
71239;BME280;61342;51.442;7.370;2022-10-04T04:58:45;100634.19;;;12.31;77.91
71239;BME280;61342;51.442;7.370;2022-10-04T04:59:51;100625.03;;;12.27;78.18
71239;BME280;61342;51.442;7.370;2022-10-04T05:00:58;100631.03;;;12.29;78.21
71239;BME280;61342;51.442;7.370;2022-10-04T05:01:59;100633.16;;;12.28;78.27
71239;BME280;61342;51.442;7.370;2022-10-04T05:03:01;100615.84;;;12.28;78.37
71239;BME280;61342;51.442;7.370;2022-10-04T05:05:24;100609.81;;;12.26;78.61
71239;BME280;61342;51.442;7.370;2022-10-04T05:06:27;100617.34;;;12.40;78.75
71239;BME280;61342;51.442;7.370;2022-10-04T05:07:28;100619.16;;;12.49;78.42
71239;BME280;61342;51.442;7.370;2022-10-04T05:08:30;100617.50;;;12.59;78.62
71239;BME280;61342;51.442;7.370;2022-10-04T05:09:35;100609.06;;;12.66;78.49
71239;BME280;61342;51.442;7.370;2022-10-04T05:10:40;100610.22;;;12.81;78.32
71239;BME280;61342;51.442;7.370;2022-10-04T05:11:42;100608.59;;;12.91;77.79
71239;BME280;61342;51.442;7.370;2022-10-04T05:12:42;100607.47;;;13.00;77.62
71239;BME280;61342;51.442;7.370;2022-10-04T05:13:57;100601.69;;;13.05;77.29
71239;BME280;61342;51.442;7.370;2022-10-04T05:15:00;100600.25;;;13.17;77.05
71239;BME280;61342;51.442;7.370;2022-10-04T05:16:00;100607.53;;;13.24;76.78
71239;BME280;61342;51.442;7.370;2022-10-04T05:17:01;100596.50;;;13.22;76.51
71239;BME280;61342;51.442;7.370;2022-10-04T05:18:30;100588.88;;;13.24;76.17
71239;BME280;61342;51.442;7.370;2022-10-04T05:19:33;100592.78;;;13.27;75.91
71239;BME280;61342;51.442;7.370;2022-10-04T05:20:35;100600.41;;;13.24;75.86
71239;BME280;61342;51.442;7.370;2022-10-04T05:21:35;100596.50;;;13.22;75.74
71239;BME280;61342;51.442;7.370;2022-10-04T05:22:37;100597.31;;;13.23;75.79
71239;BME280;61342;51.442;7.370;2022-10-04T05:23:40;100590.78;;;13.17;75.40
71239;BME280;61342;51.442;7.370;2022-10-04T05:24:43;100607.88;;;13.15;75.65
71239;BME280;61342;51.442;7.370;2022-10-04T05:25:44;100598.97;;;13.13;75.40
71239;BME280;61342;51.442;7.370;2022-10-04T05:26:49;100602.69;;;13.08;75.66
71239;BME280;61342;51.442;7.370;2022-10-04T05:27:50;100595.66;;;13.03;75.67
71239;BME280;61342;51.442;7.370;2022-10-04T05:28:50;100596.72;;;13.00;75.93
71239;BME280;61342;51.442;7.370;2022-10-04T05:31:44;100601.03;;;12.88;76.29
71239;BME280;61342;51.442;7.370;2022-10-04T05:33:06;100587.47;;;12.78;76.13
71239;BME280;61342;51.442;7.370;2022-10-04T05:34:24;100589.84;;;12.74;76.50
71239;BME280;61342;51.442;7.370;2022-10-04T05:35:27;100587.72;;;12.74;76.55
71239;BME280;61342;51.442;7.370;2022-10-04T05:37:50;100589.63;;;12.66;76.66
71239;BME280;61342;51.442;7.370;2022-10-04T05:41:24;100597.09;;;12.51;76.97
71239;BME280;61342;51.442;7.370;2022-10-04T05:42:38;100596.31;;;12.51;77.01
71239;BME280;61342;51.442;7.370;2022-10-04T05:43:45;100609.69;;;12.48;77.31
71239;BME280;61342;51.442;7.370;2022-10-04T05:44:51;100607.09;;;12.45;77.39
71239;BME280;61342;51.442;7.370;2022-10-04T05:46:15;100609.47;;;12.41;77.30
71239;BME280;61342;51.442;7.370;2022-10-04T05:47:18;100606.59;;;12.41;77.50
71239;BME280;61342;51.442;7.370;2022-10-04T05:48:23;100608.47;;;12.38;77.84
71239;BME280;61342;51.442;7.370;2022-10-04T05:49:25;100615.00;;;12.39;77.67
71239;BME280;61342;51.442;7.370;2022-10-04T05:50:34;100611.09;;;12.36;77.91
71239;BME280;61342;51.442;7.370;2022-10-04T05:51:58;100614.81;;;12.26;77.86
71239;BME280;61342;51.442;7.370;2022-10-04T05:54:27;100623.97;;;12.30;78.44
71239;BME280;61342;51.442;7.370;2022-10-04T05:55:51;100625.03;;;12.27;78.27
71239;BME280;61342;51.442;7.370;2022-10-04T05:59:44;100618.50;;;12.21;78.38
71239;BME280;61342;51.442;7.370;2022-10-04T06:02:15;100618.28;;;12.19;78.69
71239;BME280;61342;51.442;7.370;2022-10-04T06:05:08;100623.53;;;12.15;78.81
71239;BME280;61342;51.442;7.370;2022-10-04T06:07:33;100615.97;;;12.12;78.50
71239;BME280;61342;51.442;7.370;2022-10-04T06:11:47;100612.31;;;12.06;78.83
71239;BME280;61342;51.442;7.370;2022-10-04T06:12:59;100608.66;;;12.06;78.78
71239;BME280;61342;51.442;7.370;2022-10-04T06:16:14;100612.03;;;12.04;79.11
71239;BME280;61342;51.442;7.370;2022-10-04T06:18:39;100608.94;;;12.02;79.19
71239;BME280;61342;51.442;7.370;2022-10-04T06:21:06;100620.38;;;12.13;79.64
71239;BME280;61342;51.442;7.370;2022-10-04T06:22:16;100614.31;;;12.22;79.54
71239;BME280;61342;51.442;7.370;2022-10-04T06:23:17;100622.13;;;12.32;79.62
71239;BME280;61342;51.442;7.370;2022-10-04T06:24:22;100619.44;;;12.45;79.87
71239;BME280;61342;51.442;7.370;2022-10-04T06:25:28;100593.22;;;12.43;79.06
71239;BME280;61342;51.442;7.370;2022-10-04T06:26:42;100605.09;;;12.69;78.99
71239;BME280;61342;51.442;7.370;2022-10-04T06:29:02;100612.25;;;12.97;78.67
71239;BME280;61342;51.442;7.370;2022-10-04T06:30:16;100606.91;;;13.07;78.19
71239;BME280;61342;51.442;7.370;2022-10-04T06:52:47;100618.84;;;12.92;76.30
71239;BME280;61342;51.442;7.370;2022-10-04T06:55:17;100606.25;;;12.90;76.46
71239;BME280;61342;51.442;7.370;2022-10-04T07:00:24;100617.81;;;12.84;76.95
71239;BME280;61342;51.442;7.370;2022-10-04T07:02:30;100594.59;;;12.71;76.72
71239;BME280;61342;51.442;7.370;2022-10-04T07:03:37;100617.31;;;12.86;76.95
71239;BME280;61342;51.442;7.370;2022-10-04T07:04:49;100622.28;;;12.85;76.85
71239;BME280;61342;51.442;7.370;2022-10-04T07:05:54;100624.41;;;12.85;76.67
71239;BME280;61342;51.442;7.370;2022-10-04T07:07:11;100623.59;;;12.84;76.94
71239;BME280;61342;51.442;7.370;2022-10-04T07:08:47;100630.97;;;12.80;76.80
71239;BME280;61342;51.442;7.370;2022-10-04T07:10:28;100627.53;;;12.81;76.98
71239;BME280;61342;51.442;7.370;2022-10-04T07:11:42;100625.44;;;12.82;76.97
71239;BME280;61342;51.442;7.370;2022-10-04T07:12:52;100626.22;;;12.82;76.87
71239;BME280;61342;51.442;7.370;2022-10-04T07:15:02;100625.66;;;12.89;76.78
71239;BME280;61342;51.442;7.370;2022-10-04T07:17:23;100628.81;;;12.91;77.24
71239;BME280;61342;51.442;7.370;2022-10-04T07:18:32;100631.16;;;12.93;76.93
71239;BME280;61342;51.442;7.370;2022-10-04T07:19:47;100630.59;;;12.94;76.75
71239;BME280;61342;51.442;7.370;2022-10-04T07:20:51;100620.91;;;12.92;77.23